This is the latest recevied weather packets stored in our database for station/object IN3XSV-13. If no packets are shown the sender has not sent any weather packets the latest 10 day(s).
| Time | Temp. | Humidity | Pressure | Rain* | Wind** | Luminosity | Snow |
|---|---|---|---|---|---|---|---|
| 1777803834 | 26.11° C | 35% | 9957.2 hPa | 0 mm | - | - | - |
| 1777803534 | 26.11° C | 34% | 9957.3 hPa | 0 mm | - | - | - |
| 1777803234 | 25.56° C | 35% | 9957.3 hPa | 0 mm | - | - | - |
| 1777802934 | 25° C | 35% | 9957.5 hPa | 0 mm | - | - | - |
| 1777802634 | 25° C | 35% | 9957.5 hPa | 0 mm | - | - | - |
| 1777802334 | 25.56° C | 35% | 9957.5 hPa | 0 mm | - | - | - |
| 1777802034 | 25.56° C | 35% | 9957.5 hPa | 0 mm | - | - | - |
| 1777801734 | 25° C | 38% | 9957.7 hPa | 0 mm | - | - | - |
| 1777801434 | 24.44° C | 38% | 9957.7 hPa | 0 mm | - | - | - |
| 1777801134 | 24.44° C | 37% | 9957.8 hPa | 0 mm | - | - | - |
| 1777800834 | 24.44° C | 38% | 9957.8 hPa | 0 mm | - | - | - |
| 1777800534 | 23.89° C | 38% | 9957.9 hPa | 0 mm | - | - | - |
| 1777800234 | 23.89° C | 37% | 9958 hPa | 0 mm | - | - | - |
| 1777799934 | 25.56° C | 37% | 9958.1 hPa | 0 mm | - | - | - |
| 1777799634 | 25° C | 38% | 9958.1 hPa | 0 mm | - | - | - |
| 1777799334 | 25° C | 38% | 9958.3 hPa | 0 mm | - | - | - |
| 1777799034 | 26.11° C | 37% | 9958.2 hPa | 0 mm | - | - | - |
| 1777798734 | 25.56° C | 38% | 9958.3 hPa | 0 mm | - | - | - |
| 1777798434 | 25° C | 39% | 9958.4 hPa | 0 mm | - | - | - |
| 1777798134 | 26.11° C | 37% | 9958.3 hPa | 0 mm | - | - | - |
| 1777797834 | 26.11° C | 39% | 9958.4 hPa | 0 mm | - | - | - |
| 1777797534 | 25° C | 40% | 9958.5 hPa | 0 mm | - | - | - |
| 1777797234 | 24.44° C | 41% | 9958.5 hPa | 0 mm | - | - | - |
| 1777796934 | 23.33° C | 43% | 9958.6 hPa | 0 mm | - | - | - |
| 1777796634 | 22.78° C | 42% | 9958.6 hPa | 0 mm | - | - | - |
* Rain latest hour (hover to see other rain measurements)
** Current wind speed in m/s (hover to see current wind gust speed)